createdAt,value
2022-10-05T00:00:22.703Z,13.68
2022-10-05T00:03:37.292Z,11.55
2022-10-05T00:06:46.014Z,10.27
2022-10-05T00:09:58.168Z,9.10
2022-10-05T00:13:14.598Z,10.63
2022-10-05T00:16:24.150Z,9.48
2022-10-05T00:19:35.523Z,11.20
2022-10-05T00:22:42.938Z,10.25
2022-10-05T00:25:50.998Z,9.95
2022-10-05T00:29:01.430Z,9.73
2022-10-05T00:32:08.959Z,9.27
2022-10-05T00:35:17.995Z,8.48
2022-10-05T00:38:25.904Z,8.82
2022-10-05T00:41:44.438Z,9.13
2022-10-05T00:45:00.353Z,7.57
2022-10-05T00:48:24.790Z,8.48
2022-10-05T00:51:34.792Z,8.40
2022-10-05T00:58:04.842Z,7.25
2022-10-05T01:01:18.547Z,7.72
2022-10-05T01:04:35.493Z,5.18
2022-10-05T01:07:51.161Z,4.85
2022-10-05T01:11:07.255Z,6.68
2022-10-05T01:14:21.892Z,5.43
2022-10-05T01:17:40.444Z,6.57
2022-10-05T01:20:57.903Z,5.97
2022-10-05T01:24:42.615Z,5.38
2022-10-05T01:28:05.251Z,5.88
2022-10-05T01:31:21.954Z,5.15
2022-10-05T01:34:39.093Z,5.32
2022-10-05T01:37:56.396Z,5.47
2022-10-05T01:41:15.909Z,4.07
2022-10-05T01:44:31.497Z,4.25
2022-10-05T01:47:47.640Z,3.78
2022-10-05T01:51:07.296Z,4.70
2022-10-05T01:54:26.028Z,3.83
2022-10-05T01:57:44.768Z,3.85
2022-10-05T02:01:00.445Z,5.18
2022-10-05T02:04:18.649Z,5.50
2022-10-05T02:07:43.343Z,3.50
2022-10-05T02:10:56.586Z,3.40
2022-10-05T02:14:11.267Z,3.20
2022-10-05T02:17:25.414Z,3.55
2022-10-05T02:20:36.577Z,3.25
2022-10-05T02:23:46.591Z,3.72
2022-10-05T02:30:06.038Z,2.67
2022-10-05T02:33:25.235Z,2.95
2022-10-05T02:36:38.530Z,4.17
2022-10-05T02:39:56.361Z,2.95
2022-10-05T02:43:14.011Z,3.50
2022-10-05T02:46:33.317Z,1.77
2022-10-05T02:49:49.755Z,1.77
2022-10-05T02:53:08.391Z,2.00
2022-10-05T02:56:24.615Z,2.42
2022-10-05T02:59:39.121Z,2.40
2022-10-05T03:02:50.765Z,2.40
2022-10-05T03:06:04.278Z,2.67
2022-10-05T03:09:13.627Z,3.72
2022-10-05T03:12:45.748Z,1.75
2022-10-05T03:16:18.824Z,1.98
2022-10-05T03:19:48.009Z,2.83
2022-10-05T03:23:02.801Z,2.00
2022-10-05T03:26:26.457Z,1.85
2022-10-05T03:29:43.575Z,2.75
2022-10-05T03:33:01.943Z,2.10
2022-10-05T03:36:18.312Z,1.80
2022-10-05T03:39:34.095Z,2.38
2022-10-05T03:42:55.835Z,2.05
2022-10-05T03:46:08.088Z,2.00
2022-10-05T03:49:23.382Z,2.10
2022-10-05T03:52:38.055Z,2.00
2022-10-05T03:55:53.592Z,1.45
2022-10-05T03:59:04.521Z,4.22
2022-10-05T04:02:21.626Z,2.90
2022-10-05T04:05:33.115Z,2.03
2022-10-05T04:08:48.001Z,2.05
2022-10-05T04:12:06.365Z,2.97
2022-10-05T04:15:22.408Z,2.28
2022-10-05T04:18:32.606Z,3.67
2022-10-05T04:21:43.834Z,1.67
2022-10-05T04:24:54.945Z,2.08
2022-10-05T04:28:13.008Z,2.08
2022-10-05T04:31:35.963Z,1.48
2022-10-05T04:34:56.447Z,1.45
2022-10-05T04:38:19.448Z,1.63
2022-10-05T04:41:42.553Z,1.63
2022-10-05T04:45:11.565Z,2.15
2022-10-05T04:48:59.549Z,2.03
2022-10-05T04:52:15.163Z,1.52
2022-10-05T04:55:33.648Z,1.45
2022-10-05T04:58:56.811Z,1.17
2022-10-05T05:02:20.284Z,2.10
2022-10-05T05:05:58.721Z,2.25
2022-10-05T05:09:25.728Z,1.15
2022-10-05T05:12:43.152Z,1.27
2022-10-05T05:15:57.163Z,1.25
2022-10-05T05:19:22.305Z,1.95
2022-10-05T05:22:40.339Z,2.00
2022-10-05T05:25:57.536Z,1.52
2022-10-05T05:29:17.366Z,2.42
2022-10-05T05:32:36.914Z,1.50
2022-10-05T05:36:23.604Z,1.33
2022-10-05T05:39:33.110Z,1.35
2022-10-05T05:42:47.194Z,1.42
2022-10-05T05:46:01.863Z,1.60
2022-10-05T05:49:16.698Z,1.67
2022-10-05T05:52:31.935Z,1.00
2022-10-05T05:55:44.244Z,2.35
2022-10-05T05:58:56.981Z,1.30
2022-10-05T06:02:13.711Z,4.30
2022-10-05T06:05:33.660Z,1.33
2022-10-05T06:08:48.096Z,0.98
2022-10-05T06:11:58.922Z,1.25
2022-10-05T06:15:17.052Z,1.40
2022-10-05T06:18:25.630Z,1.48
2022-10-05T06:21:40.774Z,1.77
2022-10-05T06:25:02.914Z,1.35
2022-10-05T06:28:14.027Z,1.10
2022-10-05T06:31:34.133Z,1.30
2022-10-05T06:34:54.400Z,1.33
2022-10-05T06:38:19.096Z,1.40
2022-10-05T06:41:44.350Z,0.70
2022-10-05T06:44:58.712Z,1.20
2022-10-05T06:48:15.028Z,1.13
2022-10-05T06:51:26.377Z,1.88
2022-10-05T06:54:55.477Z,1.65
2022-10-05T06:58:23.069Z,1.17
2022-10-05T07:01:44.178Z,0.98
2022-10-05T07:05:19.142Z,1.48
2022-10-05T07:08:36.935Z,1.42
2022-10-05T07:12:05.393Z,1.88
2022-10-05T07:15:39.608Z,1.90
2022-10-05T07:18:56.910Z,1.40
2022-10-05T07:22:22.795Z,1.33
2022-10-05T07:25:35.356Z,1.35
2022-10-05T07:28:50.496Z,2.53
2022-10-05T07:32:14.002Z,0.80
2022-10-05T07:35:43.835Z,0.90
2022-10-05T07:39:00.372Z,0.65
2022-10-05T07:42:19.184Z,1.58
2022-10-05T07:45:32.218Z,1.27
2022-10-05T07:48:58.630Z,1.60
2022-10-05T07:52:13.715Z,1.58
2022-10-05T07:55:23.525Z,2.47
2022-10-05T07:58:34.419Z,2.92
2022-10-05T08:01:47.707Z,2.67
2022-10-05T08:05:04.159Z,0.82
2022-10-05T08:08:28.968Z,1.33
2022-10-05T08:11:45.328Z,1.30
2022-10-05T08:14:59.270Z,1.23
2022-10-05T08:18:14.920Z,2.00
2022-10-05T08:21:31.084Z,1.10
2022-10-05T08:24:46.398Z,1.88
2022-10-05T08:28:00.207Z,1.05
2022-10-05T08:31:22.257Z,1.27
2022-10-05T08:34:34.131Z,1.30
2022-10-05T08:37:46.629Z,1.00
2022-10-05T08:41:36.009Z,1.10
2022-10-05T08:45:06.754Z,1.73
2022-10-05T08:48:46.371Z,0.95
2022-10-05T08:52:25.297Z,1.73
2022-10-05T08:55:46.910Z,1.85
2022-10-05T08:59:30.101Z,1.58
2022-10-05T09:02:53.135Z,2.47
2022-10-05T09:06:43.710Z,1.17
2022-10-05T09:10:31.571Z,1.70
2022-10-05T09:14:07.271Z,2.20
2022-10-05T09:17:46.175Z,2.55
2022-10-05T09:20:56.003Z,1.48
2022-10-05T09:24:29.725Z,1.83
2022-10-05T09:27:42.242Z,2.67
2022-10-05T09:31:02.303Z,3.25
2022-10-05T09:34:43.201Z,2.85
2022-10-05T09:38:23.589Z,1.90
2022-10-05T09:42:05.825Z,1.85
2022-10-05T09:45:45.097Z,1.73
2022-10-05T09:49:22.891Z,1.90
2022-10-05T09:52:56.149Z,2.13
2022-10-05T09:56:37.594Z,2.63
2022-10-05T10:00:29.863Z,2.05
2022-10-05T10:04:14.179Z,3.53
2022-10-05T10:07:38.447Z,2.67
2022-10-05T10:11:24.244Z,2.67
2022-10-05T10:15:10.428Z,2.85
2022-10-05T10:18:30.739Z,2.03
2022-10-05T10:22:21.092Z,2.55
2022-10-05T10:26:00.438Z,2.92
2022-10-05T10:29:30.114Z,1.98
2022-10-05T10:33:22.783Z,3.85
2022-10-05T10:36:51.573Z,2.17
2022-10-05T10:40:20.421Z,2.78
2022-10-05T10:43:50.477Z,1.98
2022-10-05T10:47:24.192Z,2.92
2022-10-05T10:51:04.289Z,3.22
2022-10-05T10:54:31.782Z,2.65
2022-10-05T10:57:57.447Z,2.15
2022-10-05T11:01:19.751Z,3.00
2022-10-05T11:05:08.470Z,2.08
2022-10-05T11:09:00.613Z,1.63
2022-10-05T11:12:58.329Z,1.63
2022-10-05T11:16:34.255Z,1.98
2022-10-05T11:20:03.705Z,3.60
2022-10-05T11:23:43.038Z,2.33
2022-10-05T11:27:09.116Z,3.95
2022-10-05T11:30:48.848Z,2.72
2022-10-05T11:34:35.202Z,2.80
2022-10-05T11:38:05.674Z,2.05
2022-10-05T11:41:43.132Z,3.28
2022-10-05T11:45:23.024Z,1.00
2022-10-05T11:48:44.605Z,6.05
2022-10-05T11:52:03.664Z,2.05
2022-10-05T11:55:26.230Z,1.53
2022-10-05T11:58:40.055Z,1.58
2022-10-05T12:01:57.131Z,4.07
2022-10-05T12:05:11.494Z,2.08
2022-10-05T12:08:37.336Z,2.45
2022-10-05T12:11:58.068Z,1.33
2022-10-05T12:15:15.786Z,2.75
2022-10-05T12:18:46.063Z,1.95
2022-10-05T12:22:01.890Z,1.45
2022-10-05T12:25:22.787Z,2.15
2022-10-05T12:28:36.531Z,1.63
2022-10-05T12:31:53.793Z,2.25
2022-10-05T12:35:11.923Z,1.55
2022-10-05T12:38:28.806Z,3.08
2022-10-05T12:41:39.252Z,5.10
2022-10-05T12:45:00.675Z,1.88
2022-10-05T12:48:26.680Z,2.13
2022-10-05T12:51:43.622Z,2.30
2022-10-05T12:54:58.013Z,2.70
2022-10-05T12:58:17.901Z,1.95
2022-10-05T13:04:47.161Z,2.13
2022-10-05T13:08:10.679Z,1.63
2022-10-05T13:11:25.223Z,2.20
2022-10-05T13:14:53.973Z,1.55
2022-10-05T13:18:12.250Z,1.83
2022-10-05T13:21:25.362Z,1.77
2022-10-05T13:24:41.521Z,0.70
2022-10-05T13:27:55.475Z,2.45
2022-10-05T13:31:08.766Z,2.53
2022-10-05T13:34:25.756Z,1.70
2022-10-05T13:37:40.619Z,2.38
2022-10-05T13:40:58.290Z,2.50
2022-10-05T13:44:17.326Z,4.22
2022-10-05T13:47:33.556Z,2.30
2022-10-05T13:50:48.149Z,1.95
2022-10-05T13:54:05.059Z,6.18
2022-10-05T13:57:30.160Z,2.55
2022-10-05T14:00:46.815Z,1.42
2022-10-05T14:04:20.015Z,1.67
2022-10-05T14:07:34.493Z,1.95
2022-10-05T14:10:44.227Z,1.63
2022-10-05T14:13:55.002Z,1.30
2022-10-05T14:17:04.474Z,1.90
2022-10-05T14:20:26.076Z,1.77
2022-10-05T14:23:34.330Z,3.35
2022-10-05T14:26:41.743Z,1.58
2022-10-05T14:30:00.752Z,1.70
2022-10-05T14:33:19.171Z,1.87
2022-10-05T14:36:40.372Z,1.48
2022-10-05T14:39:50.169Z,1.17
2022-10-05T14:42:58.221Z,1.17
2022-10-05T14:46:28.058Z,1.23
2022-10-05T14:49:38.536Z,2.10
2022-10-05T14:52:51.719Z,1.23
2022-10-05T14:56:24.976Z,1.63
2022-10-05T14:59:46.136Z,1.42
2022-10-05T15:03:11.454Z,1.20
2022-10-05T15:06:27.274Z,2.70
2022-10-05T15:09:54.137Z,1.02
2022-10-05T15:13:16.306Z,1.33
2022-10-05T15:16:28.577Z,1.35
2022-10-05T15:19:51.220Z,1.67
2022-10-05T15:23:09.203Z,2.20
2022-10-05T15:26:33.485Z,1.50
2022-10-05T15:30:04.363Z,0.80
2022-10-05T15:33:18.507Z,1.02
2022-10-05T15:36:36.611Z,0.57
2022-10-05T15:39:49.299Z,1.50
2022-10-05T15:43:04.713Z,1.23
2022-10-05T15:46:19.211Z,0.35
2022-10-05T15:49:38.950Z,0.60
2022-10-05T15:52:54.631Z,0.50
2022-10-05T15:56:05.850Z,0.47
2022-10-05T15:59:23.374Z,0.82
2022-10-05T16:02:36.899Z,1.02
2022-10-05T16:06:06.787Z,2.63
2022-10-05T16:09:38.932Z,0.75
2022-10-05T16:13:02.210Z,2.20
2022-10-05T16:16:24.283Z,0.90
2022-10-05T16:19:41.919Z,0.57
2022-10-05T16:22:53.478Z,2.78
2022-10-05T16:26:19.862Z,0.88
2022-10-05T16:29:37.505Z,2.65
2022-10-05T16:32:51.135Z,1.13
2022-10-05T16:36:06.393Z,3.10
2022-10-05T16:39:21.327Z,0.75
2022-10-05T16:42:46.576Z,2.15
2022-10-05T16:46:06.871Z,1.25
2022-10-05T16:49:30.019Z,1.48
2022-10-05T16:52:43.261Z,1.33
2022-10-05T16:55:55.110Z,1.58
2022-10-05T16:59:34.622Z,0.90
2022-10-05T17:02:55.471Z,1.67
2022-10-05T17:06:15.263Z,2.28
2022-10-05T17:09:44.368Z,0.60
2022-10-05T17:13:03.360Z,1.30
2022-10-05T17:16:21.845Z,1.08
2022-10-05T17:19:42.169Z,0.95
2022-10-05T17:22:55.240Z,1.25
2022-10-05T17:26:19.367Z,1.98
2022-10-05T17:29:33.496Z,1.83
2022-10-05T17:33:00.425Z,1.17
2022-10-05T17:36:22.233Z,1.95
2022-10-05T17:39:52.764Z,0.68
2022-10-05T17:43:04.979Z,1.73
2022-10-05T17:46:14.145Z,0.47
2022-10-05T17:49:43.482Z,1.13
2022-10-05T17:53:39.525Z,1.80
2022-10-05T17:57:22.529Z,3.22
2022-10-05T18:00:43.854Z,2.83
2022-10-05T18:03:53.126Z,4.25
2022-10-05T18:07:06.601Z,4.68
2022-10-05T18:10:30.963Z,4.63
2022-10-05T18:13:46.705Z,10.00
2022-10-05T18:17:03.234Z,19.65
2022-10-05T18:20:33.256Z,105.85
2022-10-05T18:27:03.781Z,286.92
2022-10-05T18:30:23.462Z,224.75
2022-10-05T18:33:44.042Z,226.73
2022-10-05T18:37:07.471Z,207.77
2022-10-05T18:40:34.810Z,185.38
2022-10-05T18:43:54.095Z,180.27
2022-10-05T18:47:09.357Z,162.40
2022-10-05T18:50:28.561Z,142.27
2022-10-05T18:53:44.978Z,148.13
2022-10-05T18:56:53.865Z,135.40
2022-10-05T19:00:10.288Z,126.85
2022-10-05T19:03:26.056Z,125.95
2022-10-05T19:06:36.251Z,108.55
2022-10-05T19:09:59.405Z,108.88
2022-10-05T19:13:21.210Z,107.78
2022-10-05T19:16:45.126Z,105.57
2022-10-05T19:20:13.256Z,94.32
2022-10-05T19:23:35.643Z,90.40
2022-10-05T19:26:55.867Z,87.93
2022-10-05T19:30:18.827Z,78.30
2022-10-05T19:33:54.521Z,77.07
2022-10-05T19:37:09.183Z,73.95
2022-10-05T19:40:24.826Z,65.65
2022-10-05T19:44:07.080Z,63.97
2022-10-05T19:47:28.600Z,57.53
2022-10-05T19:50:43.876Z,57.45
2022-10-05T19:53:56.265Z,61.42
2022-10-05T19:57:04.524Z,54.80
2022-10-05T20:00:25.177Z,58.83
2022-10-05T20:03:35.753Z,47.60
2022-10-05T20:07:17.151Z,53.05
2022-10-05T20:10:31.235Z,45.92
2022-10-05T20:13:40.241Z,48.70
2022-10-05T20:17:05.947Z,44.33
2022-10-05T20:20:34.817Z,51.53
2022-10-05T20:23:45.278Z,108.65
2022-10-05T20:27:19.318Z,115.50
2022-10-05T20:30:28.566Z,121.20
2022-10-05T20:33:36.885Z,98.73
2022-10-05T20:36:44.876Z,92.45
2022-10-05T20:39:56.388Z,80.40
2022-10-05T20:43:03.757Z,78.20
2022-10-05T20:46:11.035Z,73.40
2022-10-05T20:49:47.691Z,68.05
2022-10-05T20:52:55.064Z,68.22
2022-10-05T20:56:05.575Z,59.35
2022-10-05T20:59:13.004Z,58.22
2022-10-05T21:02:23.407Z,54.72
2022-10-05T21:05:31.404Z,50.83
2022-10-05T21:08:39.275Z,51.00
2022-10-05T21:11:53.083Z,44.10
2022-10-05T21:15:00.596Z,43.58
2022-10-05T21:18:09.895Z,46.20
2022-10-05T21:21:17.706Z,38.08
2022-10-05T21:24:25.186Z,36.67
2022-10-05T21:27:38.419Z,39.13
2022-10-05T21:30:45.971Z,38.33
2022-10-05T21:33:53.407Z,35.35
2022-10-05T21:37:03.620Z,33.13
2022-10-05T21:40:11.831Z,32.30
2022-10-05T21:43:22.148Z,32.13
2022-10-05T21:46:29.866Z,31.35
2022-10-05T21:49:37.928Z,30.75
2022-10-05T21:52:45.782Z,30.48
2022-10-05T21:55:54.300Z,27.73
2022-10-05T21:59:05.956Z,28.48
2022-10-05T22:02:13.492Z,26.23
2022-10-05T22:05:21.127Z,23.38
2022-10-05T22:08:33.624Z,23.88
2022-10-05T22:11:41.694Z,24.63
2022-10-05T22:14:51.944Z,20.20
2022-10-05T22:17:59.896Z,21.42
2022-10-05T22:21:08.505Z,21.27
2022-10-05T22:24:15.921Z,22.55
2022-10-05T22:27:24.533Z,20.92
2022-10-05T22:30:34.753Z,19.25
2022-10-05T22:33:42.760Z,19.88
2022-10-05T22:36:50.802Z,20.15
2022-10-05T22:40:00.885Z,16.95
2022-10-05T22:43:08.284Z,17.52
2022-10-05T22:46:18.560Z,18.00
2022-10-05T22:49:25.912Z,16.15
2022-10-05T22:52:33.163Z,15.98
2022-10-05T22:55:40.573Z,15.07
2022-10-05T22:58:48.750Z,12.70
2022-10-05T23:01:59.093Z,13.30
2022-10-05T23:05:06.894Z,14.88
2022-10-05T23:08:14.430Z,14.02
2022-10-05T23:11:25.974Z,10.80
2022-10-05T23:14:33.637Z,10.98
2022-10-05T23:17:43.621Z,11.02
2022-10-05T23:24:03.284Z,12.25
2022-10-05T23:27:10.646Z,10.52
2022-10-05T23:30:18.194Z,12.07
2022-10-05T23:33:28.990Z,8.77
2022-10-05T23:36:36.426Z,10.38
2022-10-05T23:39:43.835Z,8.88
2022-10-05T23:42:51.497Z,9.85
2022-10-05T23:45:59.326Z,9.43
2022-10-05T23:49:09.496Z,8.65
2022-10-05T23:52:16.711Z,9.20
2022-10-05T23:55:23.954Z,8.75
2022-10-05T23:58:31.847Z,9.07
